Dover, Delaware
Current Conditions -  °F | °C
As of 8:58 PM on Thursday 20 Nov 2014 (Local Time) from KDOV Reporting Station
Clear Clear  
Wind Chill: -2°   Ceiling: Unl
Heat Index:   Visibility: 10mi
Dew Point: -6°   Wind: 8mph
Humidity: 56%   Direction: 300°WNW
Pressure: 30"   Gusts: NA
Location:  39.16°N, 75.52°W
Report Text: KDOV 210158Z AUTO 30007KT 10SM CLR 02/M06 A3000 RMK AO2 SLP162 T00191061
Loading
Personal Weather Stations






























Interactive Weather Map New forecast layout! Learn more

10-Day Weather Forecast

Advertisements
Track Severe Weather on mobile